createdAt,value
2019-06-26T00:00:36.434Z,30.60
2019-06-26T00:03:05.565Z,30.51
2019-06-26T00:05:34.524Z,30.98
2019-06-26T00:08:04.089Z,31.02
2019-06-26T00:10:33.103Z,31.20
2019-06-26T00:13:02.130Z,30.95
2019-06-26T00:15:31.031Z,30.69
2019-06-26T00:18:00.049Z,30.94
2019-06-26T00:20:28.997Z,30.47
2019-06-26T00:22:57.951Z,29.90
2019-06-26T00:25:26.947Z,30.57
2019-06-26T00:27:55.943Z,30.28
2019-06-26T00:30:24.861Z,30.56
2019-06-26T00:32:53.820Z,30.52
2019-06-26T00:35:22.795Z,30.64
2019-06-26T00:37:51.861Z,30.16
2019-06-26T00:40:20.815Z,30.56
2019-06-26T00:42:49.732Z,30.60
2019-06-26T00:45:18.710Z,29.81
2019-06-26T00:47:47.746Z,30.04
2019-06-26T00:50:17.020Z,29.92
2019-06-26T00:52:45.992Z,30.01
2019-06-26T00:55:14.958Z,29.81
2019-06-26T00:57:43.894Z,29.68
2019-06-26T01:00:13.016Z,29.30
2019-06-26T01:02:42.048Z,29.44
2019-06-26T01:05:12.637Z,29.82
2019-06-26T01:07:41.708Z,29.95
2019-06-26T01:10:12.489Z,29.93
2019-06-26T01:12:41.516Z,29.82
2019-06-26T01:15:10.782Z,29.59
2019-06-26T01:17:39.796Z,29.50
2019-06-26T01:20:09.191Z,29.86
2019-06-26T01:22:38.181Z,29.14
2019-06-26T01:25:07.155Z,29.42
2019-06-26T01:27:36.112Z,29.10
2019-06-26T01:30:05.634Z,29.21
2019-06-26T01:32:34.596Z,29.44
2019-06-26T01:35:04.096Z,29.48
2019-06-26T01:37:33.334Z,29.35
2019-06-26T01:40:02.284Z,28.91
2019-06-26T01:42:31.576Z,29.42
2019-06-26T01:45:00.575Z,29.57
2019-06-26T01:47:29.527Z,29.43
2019-06-26T01:49:58.684Z,29.14
2019-06-26T01:52:27.650Z,29.20
2019-06-26T01:54:56.608Z,29.12
2019-06-26T01:57:25.535Z,29.09
2019-06-26T01:59:54.519Z,29.26
2019-06-26T02:02:23.478Z,29.35
2019-06-26T02:04:52.359Z,29.15
2019-06-26T02:07:21.314Z,28.85
2019-06-26T02:09:50.273Z,29.23
2019-06-26T02:12:19.242Z,29.28
2019-06-26T02:14:48.221Z,29.34
2019-06-26T02:17:17.213Z,29.15
2019-06-26T02:19:46.183Z,29.13
2019-06-26T02:22:15.177Z,29.18
2019-06-26T02:24:44.051Z,29.11
2019-06-26T02:27:12.937Z,28.98
2019-06-26T02:29:41.834Z,28.68
2019-06-26T02:32:10.781Z,29.58
2019-06-26T02:34:39.710Z,29.58
2019-06-26T02:37:08.668Z,29.74
2019-06-26T02:39:37.667Z,29.08
2019-06-26T02:42:06.594Z,29.15
2019-06-26T02:44:52.364Z,28.68
2019-06-26T02:47:19.705Z,28.55
2019-06-26T02:49:37.089Z,28.75
2019-06-26T02:52:06.245Z,29.42
2019-06-26T02:54:35.140Z,29.18
2019-06-26T02:57:04.132Z,29.35
2019-06-26T02:59:33.240Z,28.45
2019-06-26T03:02:02.459Z,28.98
2019-06-26T03:04:31.399Z,28.80
2019-06-26T03:07:00.503Z,29.13
2019-06-26T03:09:29.469Z,29.05
2019-06-26T03:11:58.456Z,29.07
2019-06-26T03:14:34.637Z,29.59
2019-06-26T03:17:04.729Z,28.81
2019-06-26T03:19:33.664Z,29.06
2019-06-26T03:22:02.680Z,29.28
2019-06-26T03:24:31.646Z,29.05
2019-06-26T03:27:00.676Z,28.55
2019-06-26T03:29:29.746Z,28.69
2019-06-26T03:31:58.769Z,29.13
2019-06-26T03:34:28.306Z,28.92
2019-06-26T03:36:57.705Z,29.00
2019-06-26T03:39:45.069Z,28.93
2019-06-26T03:42:14.151Z,29.33
2019-06-26T03:44:43.098Z,29.20
2019-06-26T03:47:12.103Z,29.02
2019-06-26T03:49:40.997Z,28.72
2019-06-26T03:52:10.273Z,28.69
2019-06-26T03:54:40.219Z,28.73
2019-06-26T03:57:09.405Z,29.00
2019-06-26T03:59:38.372Z,29.12
2019-06-26T04:02:07.337Z,29.32
2019-06-26T04:04:36.333Z,29.57
2019-06-26T04:07:05.629Z,29.59
2019-06-26T04:09:34.727Z,29.32
2019-06-26T04:12:03.793Z,29.29
2019-06-26T04:14:32.753Z,29.45
2019-06-26T04:17:01.729Z,28.87
2019-06-26T04:19:30.600Z,28.79
2019-06-26T04:21:59.857Z,28.75
2019-06-26T04:24:28.792Z,29.27
2019-06-26T04:27:07.515Z,28.32
2019-06-26T04:29:36.553Z,29.14
2019-06-26T04:32:05.794Z,29.15
2019-06-26T04:34:43.596Z,29.51
2019-06-26T04:37:12.660Z,29.66
2019-06-26T04:39:41.630Z,30.14
2019-06-26T04:42:13.805Z,29.68
2019-06-26T04:44:42.770Z,30.13
2019-06-26T04:47:11.780Z,29.91
2019-06-26T04:49:40.638Z,29.76
2019-06-26T04:52:09.674Z,30.25
2019-06-26T04:54:38.771Z,30.51
2019-06-26T04:57:07.764Z,30.41
2019-06-26T04:59:36.654Z,30.56
2019-06-26T05:02:05.646Z,30.95
2019-06-26T05:04:34.660Z,31.45
2019-06-26T05:07:03.649Z,31.33
2019-06-26T05:09:32.643Z,31.12
2019-06-26T05:12:01.702Z,31.71
2019-06-26T05:14:30.642Z,31.33
2019-06-26T05:16:59.572Z,31.46
2019-06-26T05:19:28.521Z,32.09
2019-06-26T05:21:58.205Z,33.32
2019-06-26T05:24:27.187Z,34.09
2019-06-26T05:30:18.469Z,34.54
2019-06-26T05:32:47.853Z,35.80
2019-06-26T05:35:19.233Z,36.03
2019-06-26T05:37:48.477Z,36.40
2019-06-26T05:40:18.158Z,36.74
2019-06-26T05:42:55.084Z,36.46
2019-06-26T05:45:24.352Z,36.94
2019-06-26T05:47:53.581Z,36.58
2019-06-26T05:50:25.326Z,38.28
2019-06-26T05:52:54.517Z,39.42
2019-06-26T05:55:23.481Z,40.47
2019-06-26T05:57:52.589Z,40.56
2019-06-26T06:00:21.511Z,40.62
2019-06-26T06:02:53.720Z,41.84
2019-06-26T06:05:21.323Z,41.94
2019-06-26T06:08:02.499Z,42.38
2019-06-26T06:10:31.425Z,41.74
2019-06-26T06:13:00.506Z,42.50
2019-06-26T06:15:29.935Z,40.50
2019-06-26T06:17:59.878Z,41.52
2019-06-26T06:20:36.842Z,41.25
2019-06-26T06:23:09.154Z,40.87
2019-06-26T06:25:46.135Z,41.79
2019-06-26T06:28:17.519Z,42.10
2019-06-26T06:30:46.689Z,41.43
2019-06-26T06:33:16.175Z,40.85
2019-06-26T06:35:46.063Z,40.94
2019-06-26T06:38:15.351Z,41.05
2019-06-26T06:40:47.858Z,42.15
2019-06-26T06:43:19.246Z,42.69
2019-06-26T06:45:49.568Z,42.98
2019-06-26T06:48:18.737Z,43.00
2019-06-26T06:50:48.379Z,42.78
2019-06-26T06:53:18.977Z,42.33
2019-06-26T06:55:51.806Z,42.64
2019-06-26T06:58:21.418Z,42.77
2019-06-26T07:00:52.949Z,44.08
2019-06-26T07:03:21.975Z,43.13
2019-06-26T07:05:52.487Z,42.90
2019-06-26T07:08:28.331Z,42.51
2019-06-26T07:10:58.746Z,44.09
2019-06-26T07:13:30.514Z,44.07
2019-06-26T07:16:00.805Z,44.46
2019-06-26T07:18:33.183Z,45.55
2019-06-26T07:21:03.106Z,46.53
2019-06-26T07:23:34.210Z,46.14
2019-06-26T07:26:07.004Z,44.00
2019-06-26T07:28:36.057Z,42.88
2019-06-26T07:34:28.067Z,42.86
2019-06-26T07:36:57.131Z,44.61
2019-06-26T07:39:28.203Z,44.77
2019-06-26T07:41:57.744Z,45.12
2019-06-26T07:44:26.922Z,44.79
2019-06-26T07:46:55.941Z,45.48
2019-06-26T07:49:25.165Z,45.23
2019-06-26T07:51:55.203Z,46.74
2019-06-26T07:54:24.513Z,46.22
2019-06-26T07:56:53.547Z,44.87
2019-06-26T07:59:36.105Z,43.71
2019-06-26T08:02:05.183Z,46.77
2019-06-26T08:04:34.170Z,45.23
2019-06-26T08:07:04.835Z,44.31
2019-06-26T08:09:33.860Z,43.38
2019-06-26T08:12:02.797Z,42.78
2019-06-26T08:14:33.991Z,44.02
2019-06-26T08:17:03.279Z,43.92
2019-06-26T08:19:32.344Z,43.55
2019-06-26T08:22:24.944Z,43.72
2019-06-26T08:24:56.346Z,44.39
2019-06-26T08:27:25.204Z,44.09
2019-06-26T08:29:54.129Z,43.37
2019-06-26T08:32:25.951Z,45.01
2019-06-26T08:34:56.544Z,44.13
2019-06-26T08:37:27.478Z,43.48
2019-06-26T08:39:56.403Z,43.90
2019-06-26T08:42:26.273Z,44.58
2019-06-26T08:45:12.292Z,44.37
2019-06-26T08:47:41.260Z,44.33
2019-06-26T08:50:15.022Z,45.53
2019-06-26T08:52:44.183Z,45.58
2019-06-26T08:55:13.533Z,45.08
2019-06-26T08:57:42.618Z,44.65
2019-06-26T09:00:12.518Z,43.58
2019-06-26T09:02:41.619Z,44.87
2019-06-26T09:05:25.183Z,45.06
2019-06-26T09:07:54.288Z,46.40
2019-06-26T09:10:23.347Z,46.63
2019-06-26T09:12:52.245Z,45.99
2019-06-26T09:15:21.232Z,46.02
2019-06-26T09:17:50.188Z,45.14
2019-06-26T09:20:26.104Z,43.73
2019-06-26T09:22:55.093Z,44.63
2019-06-26T09:25:47.347Z,43.43
2019-06-26T09:28:22.144Z,44.13
2019-06-26T09:30:51.084Z,44.82
2019-06-26T09:33:20.446Z,45.82
2019-06-26T09:39:31.837Z,45.58
2019-06-26T09:42:00.898Z,46.06
2019-06-26T09:44:30.283Z,46.59
2019-06-26T09:47:09.543Z,46.07
2019-06-26T09:50:20.285Z,46.02
2019-06-26T09:53:49.876Z,46.02
2019-06-26T09:56:22.929Z,46.09
2019-06-26T09:58:52.561Z,45.37
2019-06-26T10:01:22.115Z,45.26
2019-06-26T10:03:53.939Z,46.65
2019-06-26T10:06:29.703Z,46.34
2019-06-26T10:09:13.089Z,46.77
2019-06-26T10:11:43.424Z,46.49
2019-06-26T10:14:13.601Z,47.05
2019-06-26T10:16:44.608Z,47.05
2019-06-26T10:19:13.761Z,47.31
2019-06-26T10:21:42.788Z,47.24
2019-06-26T10:24:12.997Z,46.30
2019-06-26T10:30:14.862Z,46.51
2019-06-26T10:33:22.106Z,46.05
2019-06-26T10:33:25.013Z,47.30
2019-06-26T10:35:54.140Z,46.10
2019-06-26T10:38:26.707Z,45.76
2019-06-26T10:41:00.563Z,45.83
2019-06-26T10:44:14.041Z,47.70
2019-06-26T10:50:50.068Z,48.70
2019-06-26T10:56:43.328Z,46.22
2019-06-26T10:59:27.460Z,46.10
2019-06-26T11:02:04.781Z,45.19
2019-06-26T11:04:36.392Z,45.25
2019-06-26T11:07:05.772Z,46.01
2019-06-26T11:09:34.915Z,45.53
2019-06-26T11:13:36.845Z,46.07
2019-06-26T11:16:51.789Z,45.67
2019-06-26T11:20:50.445Z,45.41
2019-06-26T11:23:47.869Z,44.34
2019-06-26T11:26:30.819Z,43.57
2019-06-26T11:29:25.565Z,43.24
2019-06-26T11:32:21.751Z,42.71
2019-06-26T11:35:27.599Z,42.41
2019-06-26T11:46:14.191Z,41.92
2019-06-26T11:48:49.613Z,41.90
2019-06-26T11:59:10.064Z,42.38
2019-06-26T12:06:15.311Z,41.30
2019-06-26T12:08:51.452Z,41.75
2019-06-26T12:16:35.798Z,42.16
2019-06-26T12:22:47.777Z,42.07
2019-06-26T12:26:22.926Z,40.84
2019-06-26T12:41:25.696Z,41.07
2019-06-26T12:51:48.239Z,41.16
2019-06-26T12:56:25.735Z,41.72
2019-06-26T12:59:18.570Z,42.13
2019-06-26T13:07:20.275Z,41.39
2019-06-26T13:16:41.671Z,41.35
2019-06-26T13:31:14.719Z,41.72
2019-06-26T13:34:39.825Z,41.14
2019-06-26T13:42:05.480Z,40.32
2019-06-26T13:44:45.027Z,41.22
2019-06-26T13:48:20.302Z,40.94
2019-06-26T13:58:36.913Z,40.32
2019-06-26T14:02:05.073Z,39.96
2019-06-26T14:07:52.771Z,40.66
2019-06-26T14:15:55.131Z,39.82
2019-06-26T14:18:30.661Z,40.30
2019-06-26T14:22:23.297Z,39.92
2019-06-26T14:25:59.066Z,40.04
2019-06-26T14:28:07.935Z,39.75
2019-06-26T14:30:40.693Z,39.33
2019-06-26T14:34:13.354Z,40.20
2019-06-26T14:37:31.947Z,39.28
2019-06-26T14:41:06.133Z,39.24
2019-06-26T14:44:14.106Z,38.65
2019-06-26T14:47:23.005Z,38.35
2019-06-26T14:50:27.335Z,37.99
2019-06-26T14:52:56.482Z,37.98
2019-06-26T14:55:28.727Z,38.33
2019-06-26T14:58:24.076Z,38.71
2019-06-26T15:01:06.320Z,38.37
2019-06-26T15:03:41.966Z,38.75
2019-06-26T15:06:16.557Z,38.35
2019-06-26T15:08:44.304Z,38.44
2019-06-26T15:11:15.695Z,39.16
2019-06-26T15:13:45.060Z,38.48
2019-06-26T15:16:19.803Z,38.62
2019-06-26T15:18:51.334Z,38.89
2019-06-26T15:21:26.379Z,38.45
2019-06-26T15:23:58.647Z,38.41
2019-06-26T15:26:33.742Z,38.27
2019-06-26T15:29:03.219Z,37.59
2019-06-26T15:31:32.429Z,38.59
2019-06-26T15:34:01.510Z,38.61
2019-06-26T15:36:30.712Z,38.67
2019-06-26T15:38:59.839Z,38.21
2019-06-26T15:41:28.926Z,38.04
2019-06-26T15:44:02.173Z,38.76
2019-06-26T15:46:31.445Z,37.54
2019-06-26T15:49:00.355Z,36.92
2019-06-26T15:51:29.557Z,37.34
2019-06-26T15:54:00.047Z,37.80
2019-06-26T15:56:29.183Z,38.63
2019-06-26T15:58:58.264Z,37.64
2019-06-26T16:01:27.444Z,37.92
2019-06-26T16:03:56.405Z,37.59
2019-06-26T16:06:25.659Z,37.89
2019-06-26T16:08:54.804Z,38.02
2019-06-26T16:11:23.958Z,36.87
2019-06-26T16:13:52.985Z,37.50
2019-06-26T16:16:22.855Z,37.51
2019-06-26T16:18:57.434Z,37.07
2019-06-26T16:22:31.711Z,37.02
2019-06-26T16:28:49.823Z,36.32
2019-06-26T16:32:07.220Z,35.87
2019-06-26T16:35:21.832Z,36.40
2019-06-26T16:38:46.901Z,37.01
2019-06-26T16:42:21.421Z,36.89
2019-06-26T16:44:29.566Z,37.08
2019-06-26T16:46:59.383Z,36.82
2019-06-26T16:49:28.373Z,36.02
2019-06-26T16:51:57.539Z,36.97
2019-06-26T16:54:26.619Z,37.35
2019-06-26T16:56:55.847Z,36.30
2019-06-26T16:59:24.719Z,36.68
2019-06-26T17:01:53.815Z,36.30
2019-06-26T17:04:22.860Z,36.27
2019-06-26T17:06:51.858Z,36.84
2019-06-26T17:09:21.810Z,36.31
2019-06-26T17:11:50.958Z,36.64
2019-06-26T17:14:22.977Z,36.43
2019-06-26T17:16:52.169Z,35.80
2019-06-26T17:19:21.373Z,36.33
2019-06-26T17:21:53.284Z,36.93
2019-06-26T17:24:23.153Z,36.28
2019-06-26T17:26:52.156Z,36.01
2019-06-26T17:29:21.128Z,36.68
2019-06-26T17:31:50.173Z,35.40
2019-06-26T17:34:20.186Z,35.67
2019-06-26T17:36:49.163Z,35.33
2019-06-26T17:39:18.131Z,35.50
2019-06-26T17:41:47.099Z,34.87
2019-06-26T17:44:16.080Z,35.53
2019-06-26T17:46:45.223Z,35.39
2019-06-26T17:49:14.274Z,36.24
2019-06-26T17:51:43.377Z,35.23
2019-06-26T17:54:12.404Z,35.15
2019-06-26T17:56:41.411Z,34.11
2019-06-26T17:59:10.369Z,33.83
2019-06-26T21:39:06.683Z,29.51
2019-06-26T21:41:35.799Z,29.80
2019-06-26T21:44:04.982Z,29.61
2019-06-26T21:46:33.891Z,29.78
2019-06-26T21:49:02.789Z,29.86
2019-06-26T21:51:31.874Z,29.75
2019-06-26T21:54:00.845Z,29.92
2019-06-26T21:56:29.721Z,29.17
2019-06-26T21:58:58.669Z,29.46
2019-06-26T22:01:27.625Z,29.75
2019-06-26T22:04:01.981Z,29.37
2019-06-26T22:06:32.222Z,29.47
2019-06-26T22:09:02.182Z,29.60
2019-06-26T22:11:35.980Z,29.57
2019-06-26T22:14:06.090Z,29.68
2019-06-26T22:16:36.013Z,29.49
2019-06-26T22:19:05.399Z,29.06
2019-06-26T22:21:34.341Z,29.35
2019-06-26T22:24:03.249Z,28.78
2019-06-26T22:26:32.193Z,28.83
2019-06-26T22:29:01.154Z,28.18
2019-06-26T22:31:30.100Z,28.74
2019-06-26T22:33:58.958Z,28.78
2019-06-26T22:36:27.889Z,28.44
2019-06-26T22:38:56.939Z,28.77
2019-06-26T22:41:25.891Z,28.63
2019-06-26T22:43:54.869Z,28.44
2019-06-26T22:46:23.749Z,28.54
2019-06-26T22:48:52.638Z,27.41
2019-06-26T22:51:22.423Z,28.36
2019-06-26T22:53:51.422Z,28.15
2019-06-26T22:56:20.406Z,27.79
2019-06-26T22:58:49.342Z,27.25
2019-06-26T23:01:18.286Z,27.69
2019-06-26T23:03:47.188Z,27.62
2019-06-26T23:06:16.939Z,27.55
2019-06-26T23:08:45.896Z,27.63
2019-06-26T23:11:14.769Z,27.57
2019-06-26T23:13:43.793Z,27.46
2019-06-26T23:16:12.761Z,28.25
2019-06-26T23:18:41.866Z,27.75
2019-06-26T23:21:10.870Z,27.36
2019-06-26T23:23:39.798Z,28.08
2019-06-26T23:26:22.929Z,27.87
2019-06-26T23:28:39.378Z,27.88
2019-06-26T23:31:08.281Z,27.74
2019-06-26T23:33:37.243Z,28.01
2019-06-26T23:36:06.518Z,27.35
2019-06-26T23:38:35.462Z,27.93
2019-06-26T23:41:04.508Z,27.61
2019-06-26T23:43:33.402Z,27.55
2019-06-26T23:46:02.382Z,27.43
2019-06-26T23:48:31.459Z,27.10
2019-06-26T23:51:00.330Z,27.82
2019-06-26T23:53:29.518Z,27.64
2019-06-26T23:55:58.454Z,27.59
2019-06-26T23:58:27.956Z,27.11
